createdAt,value
2022-12-13T00:02:00.412Z,100291.22
2022-12-13T00:04:28.631Z,100296.75
2022-12-13T00:06:56.974Z,100291.50
2022-12-13T00:09:25.499Z,100297.03
2022-12-13T00:11:55.054Z,100298.34
2022-12-13T00:14:23.287Z,100289.94
2022-12-13T00:16:52.909Z,100296.25
2022-12-13T00:19:21.100Z,100292.03
2022-12-13T00:21:49.408Z,100297.28
2022-12-13T00:24:17.541Z,100301.19
2022-12-13T00:26:47.123Z,100301.47
2022-12-13T00:29:15.850Z,100306.94
2022-12-13T00:32:01.085Z,100301.81
2022-12-13T00:34:30.133Z,100305.56
2022-12-13T00:36:59.558Z,100301.97
2022-12-13T00:39:28.393Z,100297.78
2022-12-13T00:41:57.457Z,100293.22
2022-12-13T00:44:26.021Z,100290.13
2022-12-13T00:46:54.840Z,100278.03
2022-12-13T00:49:24.112Z,100280.16
2022-12-13T00:51:53.654Z,100282.53
2022-12-13T00:54:21.773Z,100282.78
2022-12-13T00:56:51.795Z,100277.19
2022-12-13T00:59:21.048Z,100275.59
2022-12-13T01:01:49.198Z,100277.22
2022-12-13T01:04:18.377Z,100276.66
2022-12-13T01:06:50.211Z,100276.63
2022-12-13T01:09:21.980Z,100274.97
2022-12-13T01:11:51.272Z,100281.06
2022-12-13T01:14:19.782Z,100281.88
2022-12-13T01:16:47.997Z,100288.75
2022-12-13T01:19:17.517Z,100286.69
2022-12-13T01:21:45.575Z,100284.06
2022-12-13T01:24:14.171Z,100285.66
2022-12-13T01:26:42.236Z,100279.88
2022-12-13T01:29:11.923Z,100285.38
2022-12-13T01:31:42.026Z,100285.13
2022-12-13T01:34:15.656Z,100276.66
2022-12-13T01:36:45.562Z,100260.34
2022-12-13T01:39:16.655Z,100244.28
2022-12-13T01:41:47.078Z,100242.88
2022-12-13T01:44:52.981Z,100235.00
2022-12-13T01:47:59.324Z,100228.13
2022-12-13T01:50:36.404Z,100224.13
2022-12-13T01:53:08.296Z,100228.38
2022-12-13T01:55:41.667Z,100223.97
2022-12-13T01:58:11.995Z,100222.31
2022-12-13T02:00:44.034Z,100211.72
2022-12-13T02:03:21.198Z,100217.31
2022-12-13T02:06:07.213Z,100207.69
2022-12-13T02:08:36.351Z,100223.38
2022-12-13T02:11:08.134Z,100224.22
2022-12-13T02:13:37.853Z,100222.28
2022-12-13T02:16:12.860Z,100225.72
2022-12-13T02:19:12.030Z,100214.78
2022-12-13T02:22:00.404Z,100220.72
2022-12-13T02:24:58.905Z,100211.84
2022-12-13T02:28:02.258Z,100214.69
2022-12-13T02:30:40.239Z,100219.84
2022-12-13T02:33:24.345Z,100206.88
2022-12-13T02:36:06.677Z,100201.06
2022-12-13T02:38:50.367Z,100199.97
2022-12-13T02:41:27.558Z,100206.88
2022-12-13T02:44:22.161Z,100195.28
2022-12-13T02:47:03.608Z,100200.97
2022-12-13T02:49:39.066Z,100205.75
2022-12-13T02:52:12.647Z,100210.50
2022-12-13T02:54:42.863Z,100202.06
2022-12-13T02:57:32.498Z,100202.00
2022-12-13T03:00:05.977Z,100196.94
2022-12-13T03:02:49.938Z,100194.84
2022-12-13T03:05:54.876Z,100197.22
2022-12-13T03:08:47.079Z,100192.88
2022-12-13T03:11:20.367Z,100189.28
2022-12-13T03:14:03.551Z,100194.97
2022-12-13T03:16:44.241Z,100179.84
2022-12-13T03:19:15.142Z,100198.66
2022-12-13T03:21:49.190Z,100187.44
2022-12-13T03:24:19.658Z,100180.63
2022-12-13T03:26:51.264Z,100181.00
2022-12-13T03:29:23.579Z,100189.47
2022-12-13T03:31:54.319Z,100187.13
2022-12-13T03:34:23.753Z,100177.78
2022-12-13T03:36:53.531Z,100179.66
2022-12-13T03:39:22.978Z,100186.56
2022-12-13T03:41:52.947Z,100186.06
2022-12-13T03:44:21.985Z,100188.91
2022-12-13T03:46:50.482Z,100182.06
2022-12-13T03:49:18.528Z,100185.81
2022-12-13T03:51:46.943Z,100182.94
2022-12-13T03:54:15.049Z,100168.84
2022-12-13T03:56:43.391Z,100166.56
2022-12-13T03:59:11.541Z,100171.91
2022-12-13T04:01:39.990Z,100163.53
2022-12-13T04:04:08.117Z,100166.44
2022-12-13T04:06:37.812Z,100158.81
2022-12-13T04:09:05.797Z,100166.22
2022-12-13T04:11:52.628Z,100159.88
2022-12-13T04:14:22.177Z,100169.31
2022-12-13T04:16:53.694Z,100166.47
2022-12-13T04:19:22.912Z,100165.38
2022-12-13T04:21:54.678Z,100160.44
2022-12-13T04:24:30.921Z,100157.50
2022-12-13T04:27:02.000Z,100153.97
2022-12-13T04:29:34.070Z,100150.31
2022-12-13T04:32:25.920Z,100168.19
2022-12-13T04:35:00.849Z,100169.63
2022-12-13T04:37:31.330Z,100167.03
2022-12-13T04:40:00.546Z,100172.16
2022-12-13T04:42:30.208Z,100175.09
2022-12-13T04:44:58.298Z,100167.59
2022-12-13T04:47:26.610Z,100177.44
2022-12-13T04:49:55.380Z,100181.53
2022-12-13T04:52:23.798Z,100183.28
2022-12-13T04:54:55.584Z,100184.91
2022-12-13T04:57:25.718Z,100176.94
2022-12-13T04:59:53.837Z,100175.28
2022-12-13T05:02:24.461Z,100170.50
2022-12-13T05:04:53.607Z,100167.00
2022-12-13T05:07:25.956Z,100169.84
2022-12-13T05:09:54.388Z,100170.41
2022-12-13T05:12:25.312Z,100172.84
2022-12-13T05:14:54.306Z,100168.81
2022-12-13T05:17:22.736Z,100171.41
2022-12-13T05:19:50.677Z,100166.72
2022-12-13T05:22:20.756Z,100175.22
2022-12-13T05:24:49.542Z,100169.81
2022-12-13T05:27:24.640Z,100170.28
2022-12-13T05:30:04.152Z,100167.19
2022-12-13T05:32:44.166Z,100173.22
2022-12-13T05:35:22.358Z,100175.06
2022-12-13T05:37:54.502Z,100175.56
2022-12-13T05:40:24.832Z,100171.09
2022-12-13T05:43:01.209Z,100176.34
2022-12-13T05:45:31.403Z,100180.84
2022-12-13T05:48:00.230Z,100179.78
2022-12-13T05:50:28.157Z,100183.91
2022-12-13T05:52:57.203Z,100179.97
2022-12-13T05:55:25.214Z,100187.13
2022-12-13T05:57:53.566Z,100176.75
2022-12-13T06:00:30.996Z,100178.94
2022-12-13T06:03:01.918Z,100180.91
2022-12-13T06:05:31.448Z,100166.41
2022-12-13T06:08:00.819Z,100181.00
2022-12-13T06:10:34.018Z,100167.41
2022-12-13T06:13:21.674Z,100174.09
2022-12-13T06:16:01.391Z,100178.31
2022-12-13T06:18:32.741Z,100171.19
2022-12-13T06:21:03.662Z,100177.28
2022-12-13T06:23:34.019Z,100175.94
2022-12-13T06:26:07.367Z,100175.25
2022-12-13T06:28:36.019Z,100172.13
2022-12-13T06:31:05.279Z,100181.22
2022-12-13T06:33:37.296Z,100172.91
2022-12-13T06:41:11.747Z,100173.69
2022-12-13T06:43:47.810Z,100175.66
2022-12-13T06:46:17.448Z,100177.38
2022-12-13T06:48:46.123Z,100185.00
2022-12-13T06:51:22.773Z,100187.09
2022-12-13T06:53:52.998Z,100190.78
2022-12-13T06:56:21.125Z,100183.19
2022-12-13T06:58:49.779Z,100188.75
2022-12-13T07:01:24.192Z,100193.16
2022-12-13T07:03:58.014Z,100191.59
2022-12-13T07:06:27.262Z,100202.72
2022-12-13T07:08:58.383Z,100196.00
2022-12-13T07:11:29.396Z,100195.53
2022-12-13T07:13:58.054Z,100198.16
2022-12-13T07:16:28.822Z,100199.78
2022-12-13T07:19:01.219Z,100195.28
2022-12-13T07:21:30.988Z,100205.50
2022-12-13T07:23:59.475Z,100201.03
2022-12-13T07:26:27.644Z,100202.50
2022-12-13T07:28:56.345Z,100213.84
2022-12-13T07:31:25.920Z,100207.81
2022-12-13T07:33:54.944Z,100215.84
2022-12-13T07:36:24.751Z,100209.75
2022-12-13T07:38:57.963Z,100209.28
2022-12-13T07:41:27.552Z,100214.03
2022-12-13T07:43:56.757Z,100208.59
2022-12-13T07:46:32.606Z,100220.69
2022-12-13T07:49:04.360Z,100213.03
2022-12-13T07:51:35.490Z,100222.47
2022-12-13T07:54:06.891Z,100216.38
2022-12-13T07:56:36.583Z,100221.91
2022-12-13T07:59:04.943Z,100223.75
2022-12-13T08:01:37.073Z,100231.69
2022-12-13T08:04:06.824Z,100233.81
2022-12-13T08:06:37.867Z,100225.88
2022-12-13T08:09:06.638Z,100232.66
2022-12-13T08:11:34.840Z,100236.00
2022-12-13T08:14:03.305Z,100236.16
2022-12-13T08:16:31.335Z,100236.69
2022-12-13T08:19:03.087Z,100245.88
2022-12-13T08:21:57.982Z,100236.09
2022-12-13T08:24:31.175Z,100236.25
2022-12-13T08:27:02.446Z,100240.84
2022-12-13T08:29:34.219Z,100243.16
2022-12-13T08:32:06.121Z,100245.16
2022-12-13T08:34:34.541Z,100241.34
2022-12-13T08:37:03.994Z,100240.69
2022-12-13T08:39:37.603Z,100236.22
2022-12-13T08:42:14.640Z,100242.31
2022-12-13T08:44:47.805Z,100242.66
2022-12-13T08:47:24.420Z,100238.03
2022-12-13T08:50:02.015Z,100249.59
2022-12-13T08:52:40.070Z,100251.91
2022-12-13T08:55:14.925Z,100257.69
2022-12-13T08:57:43.855Z,100260.31
2022-12-13T09:00:15.135Z,100259.78
2022-12-13T09:02:43.759Z,100271.88
2022-12-13T09:05:32.946Z,100267.81
2022-12-13T09:08:24.867Z,100265.97
2022-12-13T09:10:59.394Z,100272.38
2022-12-13T09:13:33.682Z,100271.00
2022-12-13T09:16:13.840Z,100269.03
2022-12-13T09:18:43.071Z,100269.38
2022-12-13T09:21:22.497Z,100271.81
2022-12-13T09:24:02.497Z,100265.44
2022-12-13T09:26:37.688Z,100273.38
2022-12-13T09:29:11.709Z,100267.50
2022-12-13T09:31:41.454Z,100267.91
2022-12-13T09:34:11.013Z,100275.31
2022-12-13T09:36:39.599Z,100276.31
2022-12-13T09:39:07.697Z,100278.75
2022-12-13T09:41:41.422Z,100272.91
2022-12-13T09:44:32.153Z,100283.22
2022-12-13T09:47:14.095Z,100278.44
2022-12-13T09:49:51.726Z,100286.97
2022-12-13T09:52:25.672Z,100280.28
2022-12-13T09:54:57.296Z,100277.19
2022-12-13T09:57:33.912Z,100283.34
2022-12-13T10:00:11.345Z,100289.72
2022-12-13T10:02:52.195Z,100287.56
2022-12-13T10:05:33.879Z,100287.56
2022-12-13T10:08:37.495Z,100299.88
2022-12-13T10:11:05.684Z,100296.22
2022-12-13T10:13:42.507Z,100292.06
2022-12-13T10:16:26.512Z,100300.25
2022-12-13T10:19:28.856Z,100299.88
2022-12-13T10:22:02.839Z,100289.38
2022-12-13T10:25:00.399Z,100291.94
2022-12-13T10:27:36.805Z,100289.88
2022-12-13T10:30:12.792Z,100289.09
2022-12-13T10:32:55.284Z,100280.38
2022-12-13T10:35:30.733Z,100276.06
2022-12-13T10:38:31.608Z,100275.50
2022-12-13T10:41:01.645Z,100264.72
2022-12-13T10:43:33.335Z,100261.66
2022-12-13T10:46:04.341Z,100255.75
2022-12-13T10:48:40.225Z,100252.38
2022-12-13T10:51:12.645Z,100243.81
2022-12-13T10:53:48.361Z,100243.47
2022-12-13T10:56:24.063Z,100244.09
2022-12-13T10:59:23.338Z,100243.91
2022-12-13T11:01:52.440Z,100242.09
2022-12-13T11:04:28.465Z,100233.22
2022-12-13T11:07:02.906Z,100238.50
2022-12-13T11:09:38.650Z,100232.50
2022-12-13T11:12:29.082Z,100225.09
2022-12-13T11:15:03.844Z,100232.38
2022-12-13T11:17:38.048Z,100229.78
2022-12-13T11:20:08.656Z,100221.78
2022-12-13T11:22:39.509Z,100224.22
2022-12-13T11:25:31.551Z,100219.84
2022-12-13T11:28:27.878Z,100217.50
2022-12-13T11:31:04.774Z,100218.03
2022-12-13T11:34:04.664Z,100213.19
2022-12-13T11:36:56.525Z,100215.56
2022-12-13T11:39:27.614Z,100206.88
2022-12-13T11:42:22.888Z,100209.19
2022-12-13T11:45:08.286Z,100206.59
2022-12-13T11:48:04.371Z,100200.69
2022-12-13T11:50:44.242Z,100208.25
2022-12-13T11:53:32.085Z,100199.88
2022-12-13T11:56:12.016Z,100201.47
2022-12-13T11:59:05.865Z,100198.34
2022-12-13T12:02:05.058Z,100187.16
2022-12-13T12:04:58.099Z,100196.97
2022-12-13T12:08:05.054Z,100190.28
2022-12-13T12:10:45.701Z,100191.56
2022-12-13T12:13:33.718Z,100184.09
2022-12-13T12:16:32.440Z,100186.59
2022-12-13T12:19:02.389Z,100185.94
2022-12-13T12:22:12.292Z,100187.84
2022-12-13T12:24:54.226Z,100172.03
2022-12-13T12:27:48.188Z,100174.56
2022-12-13T12:30:23.762Z,100173.63
2022-12-13T12:33:05.605Z,100179.78
2022-12-13T12:35:53.625Z,100165.69
2022-12-13T12:38:52.551Z,100162.88
2022-12-13T12:41:30.254Z,100160.59
2022-12-13T12:44:30.803Z,100157.00
2022-12-13T12:47:49.032Z,100159.34
2022-12-13T12:50:42.855Z,100157.28
2022-12-13T12:53:30.473Z,100150.53
2022-12-13T12:55:58.378Z,100147.31
2022-12-13T12:58:37.466Z,100143.88
2022-12-13T13:01:14.790Z,100142.81
2022-12-13T13:03:44.985Z,100139.53
2022-12-13T13:06:22.151Z,100142.78
2022-12-13T13:08:56.843Z,100146.06
2022-12-13T13:11:28.917Z,100147.28
2022-12-13T13:14:21.874Z,100148.44
2022-12-13T13:16:50.030Z,100157.25
2022-12-13T13:19:25.755Z,100158.06
2022-12-13T13:22:02.082Z,100155.88
2022-12-13T13:24:35.635Z,100153.53
2022-12-13T13:27:09.756Z,100168.44
2022-12-13T13:29:43.855Z,100166.06
2022-12-13T13:32:12.361Z,100167.97
2022-12-13T13:35:33.015Z,100171.53
2022-12-13T13:38:25.389Z,100173.53
2022-12-13T13:40:55.045Z,100172.72
2022-12-13T13:43:32.899Z,100175.09
2022-12-13T13:46:12.086Z,100175.16
2022-12-13T13:48:40.736Z,100169.66
2022-12-13T13:51:30.443Z,100174.75
2022-12-13T13:54:20.053Z,100166.97
2022-12-13T13:57:28.895Z,100171.59
2022-12-13T14:00:18.297Z,100177.94
2022-12-13T14:03:22.081Z,100167.69
2022-12-13T14:06:36.232Z,100170.13
2022-12-13T14:09:50.462Z,100166.34
2022-12-13T14:12:42.663Z,100169.50
2022-12-13T14:15:59.950Z,100172.72
2022-12-13T14:19:05.103Z,100167.56
2022-12-13T14:21:46.419Z,100165.16
2022-12-13T14:24:30.562Z,100170.25
2022-12-13T14:27:14.130Z,100155.84
2022-12-13T14:29:57.628Z,100154.31
2022-12-13T14:32:30.335Z,100147.44
2022-12-13T14:35:25.586Z,100148.97
2022-12-13T14:38:05.724Z,100155.78
2022-12-13T14:40:37.194Z,100143.88
2022-12-13T14:43:05.687Z,100146.44
2022-12-13T14:45:37.226Z,100136.22
2022-12-13T14:48:14.320Z,100130.41
2022-12-13T14:50:45.245Z,100131.56
2022-12-13T14:53:37.870Z,100135.59
2022-12-13T14:56:28.740Z,100139.50
2022-12-13T14:59:03.642Z,100140.03
2022-12-13T15:01:35.645Z,100139.97
2022-12-13T15:04:23.067Z,100153.50
2022-12-13T15:07:06.694Z,100151.41
2022-12-13T15:09:41.137Z,100145.69
2022-12-13T15:12:24.302Z,100155.19
2022-12-13T15:15:02.547Z,100155.78
2022-12-13T15:17:36.430Z,100155.34
2022-12-13T15:20:31.352Z,100158.66
2022-12-13T15:23:48.625Z,100155.75
2022-12-13T15:26:29.085Z,100161.13
2022-12-13T15:29:10.277Z,100162.66
2022-12-13T15:31:41.455Z,100170.59
2022-12-13T15:34:30.870Z,100171.44
2022-12-13T15:37:28.013Z,100177.34
2022-12-13T15:40:08.018Z,100183.00
2022-12-13T15:42:44.097Z,100178.41
2022-12-13T15:45:22.988Z,100173.06
2022-12-13T15:47:54.695Z,100173.59
2022-12-13T15:50:31.314Z,100169.66
2022-12-13T15:53:17.215Z,100163.56
2022-12-13T15:55:47.025Z,100172.72
2022-12-13T15:58:28.148Z,100179.25
2022-12-13T16:00:57.268Z,100176.63
2022-12-13T16:03:27.628Z,100177.41
2022-12-13T16:05:57.931Z,100183.06
2022-12-13T16:08:32.833Z,100178.16
2022-12-13T16:11:02.508Z,100184.84
2022-12-13T16:13:37.409Z,100187.22
2022-12-13T16:16:28.419Z,100186.88
2022-12-13T16:19:00.326Z,100183.78
2022-12-13T16:21:30.259Z,100177.44
2022-12-13T16:23:58.757Z,100180.72
2022-12-13T16:26:29.779Z,100188.03
2022-12-13T16:28:59.876Z,100181.72
2022-12-13T16:31:36.170Z,100172.41
2022-12-13T16:34:05.982Z,100171.00
2022-12-13T16:36:34.861Z,100162.03
2022-12-13T16:39:10.528Z,100164.53
2022-12-13T16:41:42.919Z,100158.88
2022-12-13T16:44:22.302Z,100173.69
2022-12-13T16:47:11.403Z,100184.16
2022-12-13T16:49:39.569Z,100157.38
2022-12-13T16:52:08.529Z,100161.09
2022-12-13T16:54:37.017Z,100176.19
2022-12-13T16:57:05.117Z,100170.47
2022-12-13T16:59:33.566Z,100166.91
2022-12-13T17:02:01.682Z,100168.41
2022-12-13T17:04:30.119Z,100166.84
2022-12-13T17:06:58.185Z,100169.41
2022-12-13T17:09:26.890Z,100173.47
2022-12-13T17:11:55.060Z,100162.59
2022-12-13T17:14:23.717Z,100171.28
2022-12-13T17:16:51.836Z,100169.63
2022-12-13T17:19:20.532Z,100180.28
2022-12-13T17:21:49.326Z,100171.63
2022-12-13T17:24:19.076Z,100182.66
2022-12-13T17:26:54.831Z,100169.56
2022-12-13T17:29:25.422Z,100175.84
2022-12-13T17:31:53.758Z,100176.78
2022-12-13T17:34:23.449Z,100171.00
2022-12-13T17:36:51.551Z,100158.91
2022-12-13T17:39:20.307Z,100161.81
2022-12-13T17:41:55.094Z,100167.63
2022-12-13T17:44:25.980Z,100163.69
2022-12-13T17:46:55.724Z,100152.94
2022-12-13T17:49:25.253Z,100152.41
2022-12-13T17:51:54.737Z,100156.25
2022-12-13T17:54:25.633Z,100155.66
2022-12-13T17:56:54.702Z,100158.97
2022-12-13T17:59:23.626Z,100163.13
2022-12-13T18:01:52.003Z,100149.66
2022-12-13T18:04:22.413Z,100147.97
2022-12-13T18:06:52.485Z,100141.94
2022-12-13T18:09:20.985Z,100146.38
2022-12-13T18:11:49.111Z,100147.19
2022-12-13T18:14:18.639Z,100144.00
2022-12-13T18:16:47.063Z,100146.59
2022-12-13T18:19:15.634Z,100136.41
2022-12-13T18:21:43.944Z,100134.00
2022-12-13T18:24:13.019Z,100143.28
2022-12-13T18:26:41.228Z,100140.63
2022-12-13T18:29:09.858Z,100150.31
2022-12-13T18:31:38.583Z,100150.03
2022-12-13T18:34:09.452Z,100140.41
2022-12-13T18:36:39.991Z,100144.22
2022-12-13T18:39:08.434Z,100145.66
2022-12-13T18:41:36.644Z,100142.22
2022-12-13T18:44:11.545Z,100142.75
2022-12-13T18:46:44.752Z,100140.59
2022-12-13T18:49:14.654Z,100140.34
2022-12-13T18:51:43.025Z,100147.09
2022-12-13T18:54:12.665Z,100147.19
2022-12-13T18:56:41.228Z,100151.63
2022-12-13T18:59:12.559Z,100150.22
2022-12-13T19:01:40.766Z,100155.28
2022-12-13T19:04:09.180Z,100149.28
2022-12-13T19:06:37.400Z,100147.72
2022-12-13T19:09:07.207Z,100155.09
2022-12-13T19:11:35.549Z,100148.59
2022-12-13T19:14:04.314Z,100142.28
2022-12-13T19:16:32.644Z,100147.31
2022-12-13T19:19:01.785Z,100148.56
2022-12-13T19:21:29.941Z,100139.22
2022-12-13T19:24:01.294Z,100136.03
2022-12-13T19:26:31.879Z,100137.84
2022-12-13T19:29:02.335Z,100138.59
2022-12-13T19:31:32.569Z,100141.88
2022-12-13T19:34:02.567Z,100141.22
2022-12-13T19:36:32.431Z,100143.50
2022-12-13T19:39:01.875Z,100142.19
2022-12-13T19:41:32.438Z,100148.81
2022-12-13T19:44:04.005Z,100145.09
2022-12-13T19:46:33.435Z,100150.19
2022-12-13T19:49:01.904Z,100157.09
2022-12-13T19:51:35.939Z,100154.91
2022-12-13T19:54:08.199Z,100155.56
2022-12-13T19:56:36.740Z,100155.59
2022-12-13T19:59:05.465Z,100165.56
2022-12-13T20:01:33.671Z,100147.63
2022-12-13T20:04:02.530Z,100153.81
2022-12-13T20:06:30.744Z,100154.31
2022-12-13T20:08:59.215Z,100149.19
2022-12-13T20:11:27.875Z,100136.84
2022-12-13T20:13:57.601Z,100146.06
2022-12-13T20:16:27.766Z,100147.78
2022-12-13T20:18:59.141Z,100143.28
2022-12-13T20:21:28.660Z,100146.47
2022-12-13T20:23:58.210Z,100149.78
2022-12-13T20:26:29.196Z,100144.03
2022-12-13T20:28:58.514Z,100150.44
2022-12-13T20:31:32.215Z,100161.50
2022-12-13T20:34:03.942Z,100159.75
2022-12-13T20:36:32.103Z,100159.97
2022-12-13T20:39:03.052Z,100161.97
2022-12-13T20:41:34.015Z,100159.31
2022-12-13T20:44:05.421Z,100156.34
2022-12-13T20:46:34.367Z,100161.09
2022-12-13T20:49:05.644Z,100156.00
2022-12-13T20:51:35.245Z,100155.50
2022-12-13T20:54:05.092Z,100159.25
2022-12-13T20:56:37.389Z,100168.19
2022-12-13T20:59:09.132Z,100158.53
2022-12-13T21:01:40.137Z,100158.19
2022-12-13T21:04:11.397Z,100163.78
2022-12-13T21:06:42.614Z,100158.25
2022-12-13T21:09:13.071Z,100155.59
2022-12-13T21:11:44.564Z,100155.06
2022-12-13T21:14:26.501Z,100158.44
2022-12-13T21:17:00.127Z,100155.19
2022-12-13T21:19:39.491Z,100158.81
2022-12-13T21:22:08.367Z,100162.59
2022-12-13T21:24:36.879Z,100144.69
2022-12-13T21:27:06.034Z,100147.25
2022-12-13T21:29:34.504Z,100141.00
2022-12-13T21:32:03.255Z,100146.22
2022-12-13T21:34:31.842Z,100140.34
2022-12-13T21:37:00.780Z,100139.16
2022-12-13T21:39:29.540Z,100139.38
2022-12-13T21:41:58.528Z,100147.88
2022-12-13T21:44:27.431Z,100133.81
2022-12-13T21:47:13.202Z,100145.31
2022-12-13T21:49:57.436Z,100138.09
2022-12-13T21:52:49.911Z,100135.25
2022-12-13T21:58:25.102Z,100146.72
2022-12-13T22:00:53.942Z,100142.28
2022-12-13T22:03:21.839Z,100146.09
2022-12-13T22:05:50.160Z,100149.81
2022-12-13T22:08:18.204Z,100146.81
2022-12-13T22:11:05.248Z,100149.88
2022-12-13T22:13:33.303Z,100149.88
2022-12-13T22:16:01.691Z,100146.25
2022-12-13T22:18:29.895Z,100147.72
2022-12-13T22:20:59.363Z,100142.81
2022-12-13T22:23:27.395Z,100149.22
2022-12-13T22:25:56.142Z,100152.53
2022-12-13T22:28:24.479Z,100147.19
2022-12-13T22:30:54.074Z,100154.41
2022-12-13T22:33:22.296Z,100147.31
2022-12-13T22:35:50.716Z,100152.25
2022-12-13T22:38:19.586Z,100144.31
2022-12-13T22:40:48.223Z,100154.00
2022-12-13T22:43:20.454Z,100154.72
2022-12-13T22:45:49.384Z,100143.06
2022-12-13T22:48:17.546Z,100142.53
2022-12-13T22:50:45.972Z,100137.28
2022-12-13T22:53:13.863Z,100139.47
2022-12-13T22:55:42.244Z,100132.69
2022-12-13T22:58:10.281Z,100126.25
2022-12-13T23:00:38.709Z,100118.38
2022-12-13T23:03:07.074Z,100116.06
2022-12-13T23:05:35.984Z,100108.97
2022-12-13T23:08:04.282Z,100101.75
2022-12-13T23:10:51.040Z,100096.81
2022-12-13T23:13:19.040Z,100102.97
2022-12-13T23:15:49.497Z,100091.22
2022-12-13T23:18:17.815Z,100080.03
2022-12-13T23:20:46.106Z,100083.44
2022-12-13T23:23:16.551Z,100076.00
2022-12-13T23:25:45.000Z,100077.06
2022-12-13T23:28:17.130Z,100064.09
2022-12-13T23:30:45.521Z,100061.44
2022-12-13T23:33:13.650Z,100055.69
2022-12-13T23:35:42.016Z,100051.78
2022-12-13T23:38:10.060Z,100046.63
2022-12-13T23:40:38.553Z,100043.41
2022-12-13T23:43:06.559Z,100043.19
2022-12-13T23:45:34.882Z,100033.91
2022-12-13T23:48:02.925Z,100036.41
2022-12-13T23:50:31.407Z,100032.69
2022-12-13T23:52:59.405Z,100033.28
2022-12-13T23:55:27.887Z,100037.03
2022-12-13T23:57:56.128Z,100028.19
